首页
METAR-TAF:

METAR-TAF

机场 :

洛迦诺, 瑞士

纬度: 46-09-55N, 经度: 8-52-40E, 海拔: 198米

当前天气观测

该预报发布于49分钟前的16:20 UTC
风速4节,风向西,在西南西北之间变化
温度 25°C
湿度 54%
气压 1015 hPa
能见度10公里或以上

METAR: LSZL 011620Z AUTO 28004KT 230V320 9999NDV NCD 25/15 Q1015 RMK

时间: 19:09 (17:09 UTC)

预报

该预报发布于5小时和44分钟前的11:25 UTC
预报有效从01日的 12点(UTC)到 01日的 21点(UTC)
风速5节,风向西转西南
能见度10公里或以上
1500米以下无云,无积雨云
短暂存在
从 01日的 12点(UTC)到 01日的 21点(UTC)
能见度10公里或以上
少量云层高于5000英尺
几率 30% :
短暂存在
从 01日的 15点(UTC)到 01日的 21点(UTC)
散云层高于5000英尺, 塔状积云.
阵雨

TAF: LSZL 011125Z 0112/0121 25005KT CAVOK TEMPO 0112/0121 9999 FEW050 PROB30 TEMPO 0115/0121 SHRA SCT050TCU

超过4000个机场的气象观测和天气预报(METAR&TAF报告)。

可查询的气象台以黄色和红色小点在地图上表示。

将鼠标移到小点上方,可查看气象台名称。

然后点击查看天气观测和预报。

如需切换地图:点击带黑十字的绿色按钮放大地图;点击带横线的绿色按钮缩小地图;或者点击绿色箭头查看邻近地区的地图。


METAR-TAF: